Terminal Aerodrome Forecast
Issued by NWS

Home | Current Version | Previous Version | Text Only | Print | Product List | Glossary On
Versions: 1 2 3 4 5 6 7 8 9 10 11 12 13 14
000
FTUS44 KCRP 021045 AAA
TAFLRD
TAF AMD
KLRD 021045Z 0211/0306 13006KT P6SM SCT025 BKN150
      TEMPO 0211/0215 BKN025
     FM021600 16015KT P6SM BKN035 BKN150
     FM022000 15018G24KT P6SM SCT050 SCT150
     FM030300 14015KT P6SM FEW025=

USA.gov is the U.S. government's official web portal to all federal, state and local government web resources and services.